createdAt,value
2022-08-26T00:01:58.160Z,19.98
2022-08-26T00:06:04.166Z,10.50
2022-08-26T00:10:09.131Z,15.75
2022-08-26T00:14:14.683Z,10.15
2022-08-26T00:18:22.151Z,19.23
2022-08-26T00:22:25.615Z,15.10
2022-08-26T00:26:29.554Z,19.35
2022-08-26T00:30:35.805Z,10.77
2022-08-26T00:34:39.621Z,14.45
2022-08-26T00:38:42.991Z,13.70
2022-08-26T00:42:46.798Z,17.08
2022-08-26T00:46:58.903Z,18.10
2022-08-26T00:51:07.892Z,14.85
2022-08-26T00:55:20.126Z,17.58
2022-08-26T00:59:25.601Z,16.83
2022-08-26T01:03:35.058Z,21.10
2022-08-26T01:07:39.074Z,19.00
2022-08-26T01:11:43.243Z,16.85
2022-08-26T01:15:50.030Z,21.85
2022-08-26T01:20:03.119Z,18.05
2022-08-26T01:24:10.623Z,19.50
2022-08-26T01:28:17.979Z,16.95
2022-08-26T01:32:24.201Z,15.75
2022-08-26T01:40:54.594Z,19.70
2022-08-26T01:45:02.456Z,36.20
2022-08-26T01:49:10.070Z,26.88
2022-08-26T01:53:17.938Z,19.95
2022-08-26T01:57:24.331Z,14.75
2022-08-26T02:01:29.597Z,15.20
2022-08-26T02:05:33.470Z,15.20
2022-08-26T02:09:41.213Z,19.90
2022-08-26T02:13:49.275Z,18.17
2022-08-26T02:17:53.927Z,12.25
2022-08-26T02:22:02.406Z,24.35
2022-08-26T02:26:12.435Z,16.58
2022-08-26T02:30:26.079Z,12.15
2022-08-26T02:34:34.145Z,12.52
2022-08-26T02:38:37.401Z,20.75
2022-08-26T02:42:43.902Z,19.08
2022-08-26T02:46:49.012Z,9.85
2022-08-26T02:50:52.213Z,10.30
2022-08-26T02:54:56.453Z,8.13
2022-08-26T02:59:00.159Z,12.98
2022-08-26T03:03:06.032Z,9.88
2022-08-26T03:07:09.319Z,17.80
2022-08-26T03:11:13.742Z,14.57
2022-08-26T03:15:18.648Z,18.25
2022-08-26T03:19:25.445Z,15.15
2022-08-26T03:23:30.127Z,20.27
2022-08-26T03:27:33.768Z,20.13
2022-08-26T03:31:37.166Z,9.30
2022-08-26T03:35:43.861Z,15.68
2022-08-26T03:39:47.868Z,16.45
2022-08-26T03:43:51.136Z,13.05
2022-08-26T03:47:55.261Z,9.05
2022-08-26T03:52:02.451Z,9.02
2022-08-26T03:56:08.412Z,14.25
2022-08-26T04:00:15.303Z,9.55
2022-08-26T04:04:22.854Z,10.98
2022-08-26T04:08:29.887Z,12.95
2022-08-26T04:12:32.973Z,14.18
2022-08-26T04:16:37.188Z,13.80
2022-08-26T04:20:41.303Z,14.00
2022-08-26T04:24:45.871Z,16.67
2022-08-26T04:28:49.824Z,10.27
2022-08-26T04:32:53.423Z,8.45
2022-08-26T04:36:57.916Z,10.02
2022-08-26T04:41:05.461Z,9.80
2022-08-26T04:45:11.571Z,10.98
2022-08-26T04:49:15.728Z,14.50
2022-08-26T04:53:19.207Z,11.18
2022-08-26T04:57:25.315Z,11.48
2022-08-26T05:01:30.098Z,7.20
2022-08-26T05:05:34.847Z,8.80
2022-08-26T05:09:38.539Z,9.88
2022-08-26T05:13:44.128Z,15.88
2022-08-26T05:17:48.619Z,11.48
2022-08-26T05:21:52.817Z,12.95
2022-08-26T05:25:59.282Z,8.75
2022-08-26T05:30:06.706Z,7.55
2022-08-26T05:34:11.193Z,7.60
2022-08-26T05:38:20.884Z,14.18
2022-08-26T05:42:25.408Z,15.50
2022-08-26T05:46:37.375Z,12.57
2022-08-26T05:50:41.943Z,19.33
2022-08-26T05:54:47.944Z,17.60
2022-08-26T05:58:54.750Z,16.17
2022-08-26T06:02:59.905Z,15.57
2022-08-26T06:07:03.957Z,21.13
2022-08-26T06:11:18.524Z,19.17
2022-08-26T06:15:22.751Z,13.80
2022-08-26T06:19:32.647Z,12.27
2022-08-26T06:23:53.517Z,18.25
2022-08-26T06:27:57.808Z,21.77
2022-08-26T06:32:03.318Z,26.60
2022-08-26T06:36:10.585Z,13.07
2022-08-26T06:40:16.259Z,18.33
2022-08-26T06:44:21.082Z,17.00
2022-08-26T06:48:25.575Z,18.67
2022-08-26T06:52:32.603Z,20.33
2022-08-26T06:56:38.976Z,18.90
2022-08-26T07:00:47.350Z,15.80
2022-08-26T07:04:51.543Z,21.20
2022-08-26T07:09:06.760Z,22.98
2022-08-26T07:13:18.516Z,15.68
2022-08-26T07:17:35.863Z,21.52
2022-08-26T07:21:41.296Z,16.95
2022-08-26T07:25:47.152Z,27.95
2022-08-26T07:29:50.716Z,24.40
2022-08-26T07:33:55.406Z,18.55
2022-08-26T07:37:58.987Z,26.65
2022-08-26T07:42:08.216Z,20.98
2022-08-26T07:46:16.364Z,27.65
2022-08-26T07:50:20.696Z,18.55
2022-08-26T07:54:26.966Z,22.45
2022-08-26T07:58:32.420Z,21.83
2022-08-26T08:02:36.720Z,20.67
2022-08-26T08:06:40.609Z,21.85
2022-08-26T08:10:48.806Z,22.33
2022-08-26T08:14:53.903Z,20.83
2022-08-26T08:18:59.232Z,17.85
2022-08-26T08:23:09.212Z,22.90
2022-08-26T08:27:17.176Z,19.17
2022-08-26T08:31:52.573Z,13.05
2022-08-26T08:35:52.862Z,22.15
2022-08-26T08:39:58.476Z,16.08
2022-08-26T08:44:03.710Z,19.38
2022-08-26T08:48:15.644Z,16.85
2022-08-26T08:52:29.403Z,13.23
2022-08-26T08:56:36.834Z,16.92
2022-08-26T09:00:49.412Z,18.60
2022-08-26T09:05:10.021Z,17.23
2022-08-26T09:09:25.109Z,17.17
2022-08-26T09:13:31.835Z,19.98
2022-08-26T09:17:45.080Z,18.63
2022-08-26T09:21:58.103Z,17.98
2022-08-26T09:26:05.910Z,20.27
2022-08-26T09:30:11.998Z,11.20
2022-08-26T09:34:19.959Z,18.40
2022-08-26T09:38:35.062Z,17.42
2022-08-26T09:42:40.757Z,16.58
2022-08-26T09:46:54.376Z,18.48
2022-08-26T09:51:02.128Z,15.57
2022-08-26T09:55:15.778Z,18.98
2022-08-26T09:59:32.565Z,14.63
2022-08-26T10:03:40.864Z,16.23
2022-08-26T10:07:49.972Z,15.27
2022-08-26T10:11:59.430Z,16.80
2022-08-26T10:16:13.219Z,19.88
2022-08-26T10:20:23.426Z,16.80
2022-08-26T10:24:33.132Z,18.88
2022-08-26T10:28:44.492Z,17.02
2022-08-26T10:32:53.553Z,18.38
2022-08-26T10:37:14.280Z,15.82
2022-08-26T10:41:25.122Z,17.80
2022-08-26T10:45:36.499Z,16.80
2022-08-26T10:49:42.966Z,11.23
2022-08-26T10:53:57.552Z,13.55
2022-08-26T10:58:09.432Z,15.00
2022-08-26T11:02:25.356Z,10.05
2022-08-26T11:06:32.210Z,10.27
2022-08-26T11:10:59.039Z,15.27
2022-08-26T11:15:06.768Z,10.88
2022-08-26T11:20:03.866Z,12.45
2022-08-26T11:24:27.387Z,11.68
2022-08-26T11:28:36.492Z,11.57
2022-08-26T11:32:51.909Z,6.50
2022-08-26T11:37:00.604Z,6.85
2022-08-26T11:41:10.649Z,11.48
2022-08-26T11:45:21.139Z,7.97
2022-08-26T11:49:26.587Z,8.63
2022-08-26T11:53:33.860Z,9.32
2022-08-26T11:57:45.436Z,11.95
2022-08-26T12:01:54.014Z,7.43
2022-08-26T12:05:57.801Z,8.38
2022-08-26T12:10:04.133Z,8.77
2022-08-26T12:14:17.957Z,8.52
2022-08-26T12:18:29.166Z,12.88
2022-08-26T12:22:36.472Z,9.60
2022-08-26T12:26:42.301Z,10.93
2022-08-26T12:31:01.079Z,6.75
2022-08-26T12:39:14.379Z,5.00
2022-08-26T12:43:40.727Z,9.27
2022-08-26T12:47:46.588Z,6.15
2022-08-26T12:51:51.697Z,5.88
2022-08-26T12:55:58.142Z,6.25
2022-08-26T13:00:30.567Z,8.98
2022-08-26T13:04:39.820Z,9.77
2022-08-26T13:08:44.945Z,14.65
2022-08-26T13:12:48.295Z,11.95
2022-08-26T13:16:53.846Z,4.45
2022-08-26T13:20:57.890Z,6.28
2022-08-26T13:25:01.552Z,7.63
2022-08-26T13:29:09.667Z,5.55
2022-08-26T13:33:17.375Z,8.10
2022-08-26T13:37:34.139Z,9.00
2022-08-26T13:41:41.510Z,5.03
2022-08-26T13:45:45.774Z,7.65
2022-08-26T13:49:50.537Z,10.70
2022-08-26T13:53:55.085Z,7.65
2022-08-26T13:57:59.075Z,8.73
2022-08-26T14:02:03.549Z,7.05
2022-08-26T14:06:08.792Z,9.38
2022-08-26T14:10:12.952Z,5.18
2022-08-26T14:14:16.386Z,6.10
2022-08-26T14:18:31.257Z,6.70
2022-08-26T14:22:40.528Z,3.85
2022-08-26T14:26:48.758Z,5.03
2022-08-26T14:30:55.452Z,8.02
2022-08-26T14:34:59.112Z,10.48
2022-08-26T14:39:07.260Z,4.03
2022-08-26T14:43:11.299Z,5.68
2022-08-26T14:47:14.607Z,4.15
2022-08-26T14:51:18.564Z,6.28
2022-08-26T14:55:23.559Z,5.68
2022-08-26T14:59:28.905Z,29.38
2022-08-26T15:03:32.159Z,10.55
2022-08-26T15:07:35.942Z,8.35
2022-08-26T15:11:41.323Z,8.98
2022-08-26T15:15:45.126Z,7.15
2022-08-26T15:19:48.934Z,4.53
2022-08-26T15:23:53.386Z,7.95
2022-08-26T15:27:58.372Z,8.15
2022-08-26T15:32:02.141Z,15.55
2022-08-26T15:36:07.317Z,12.77
2022-08-26T15:40:11.622Z,5.60
2022-08-26T15:44:18.264Z,8.60
2022-08-26T15:48:22.113Z,9.82
2022-08-26T15:52:26.750Z,7.18
2022-08-26T15:56:34.525Z,13.10
2022-08-26T16:00:39.623Z,4.38
2022-08-26T16:04:43.044Z,12.77
2022-08-26T16:08:47.794Z,6.65
2022-08-26T16:12:51.332Z,5.97
2022-08-26T16:16:58.259Z,6.50
2022-08-26T16:21:13.150Z,8.05
2022-08-26T16:25:17.793Z,5.53
2022-08-26T16:29:21.587Z,7.20
2022-08-26T16:33:29.422Z,5.25
2022-08-26T16:37:36.509Z,6.65
2022-08-26T16:41:42.260Z,7.35
2022-08-26T16:45:45.519Z,6.30
2022-08-26T16:49:51.315Z,10.15
2022-08-26T16:53:56.963Z,6.05
2022-08-26T16:58:01.213Z,4.72
2022-08-26T17:02:05.187Z,5.82
2022-08-26T17:06:11.187Z,5.45
2022-08-26T17:10:14.968Z,7.30
2022-08-26T17:14:19.214Z,5.82
2022-08-26T17:18:22.544Z,7.78
2022-08-26T17:22:32.723Z,5.10
2022-08-26T17:26:38.511Z,6.15
2022-08-26T17:30:43.139Z,5.20
2022-08-26T17:39:44.610Z,8.02
2022-08-26T17:43:48.528Z,8.80
2022-08-26T17:47:51.932Z,8.25
2022-08-26T17:51:55.598Z,10.77
2022-08-26T17:56:00.604Z,9.43
2022-08-26T18:00:07.511Z,6.80
2022-08-26T18:04:11.158Z,8.77
2022-08-26T18:08:14.815Z,19.35
2022-08-26T18:12:19.731Z,6.85
2022-08-26T18:16:23.206Z,15.02
2022-08-26T18:20:27.807Z,10.25
2022-08-26T18:24:32.799Z,15.35
2022-08-26T18:28:37.773Z,10.57
2022-08-26T18:32:41.337Z,10.57
2022-08-26T18:36:48.239Z,13.90
2022-08-26T18:40:52.038Z,10.98
2022-08-26T18:44:57.035Z,10.88
2022-08-26T18:49:02.008Z,9.93
2022-08-26T18:53:05.583Z,14.30
2022-08-26T18:57:09.271Z,10.38
2022-08-26T19:01:14.483Z,7.60
2022-08-26T19:05:18.550Z,12.50
2022-08-26T19:09:22.876Z,4.45
2022-08-26T19:13:27.483Z,7.40
2022-08-26T19:17:32.502Z,7.95
2022-08-26T19:21:36.814Z,8.18
2022-08-26T19:25:42.540Z,7.80
2022-08-26T19:29:47.722Z,4.85
2022-08-26T19:33:52.676Z,7.95
2022-08-26T19:37:56.197Z,6.13
2022-08-26T19:42:00.498Z,4.15
2022-08-26T19:46:14.829Z,4.80
2022-08-26T19:50:20.109Z,5.63
2022-08-26T19:54:24.181Z,3.17
2022-08-26T19:58:30.436Z,4.03
2022-08-26T20:02:34.319Z,4.13
2022-08-26T20:06:40.116Z,4.93
2022-08-26T20:10:45.126Z,4.85
2022-08-26T20:14:49.440Z,4.03
2022-08-26T20:19:10.886Z,4.97
2022-08-26T20:24:21.898Z,3.30
2022-08-26T20:28:51.115Z,3.70
2022-08-26T20:33:45.983Z,2.90
2022-08-26T20:38:28.673Z,6.22
2022-08-26T20:43:33.509Z,7.30
2022-08-26T20:47:38.667Z,6.70
2022-08-26T20:51:43.510Z,9.43
2022-08-26T20:55:47.181Z,4.05
2022-08-26T20:59:50.895Z,3.95
2022-08-26T21:03:57.517Z,6.75
2022-08-26T21:08:01.430Z,2.65
2022-08-26T21:12:05.841Z,4.30
2022-08-26T21:16:09.805Z,4.72
2022-08-26T21:20:14.709Z,3.70
2022-08-26T21:24:19.082Z,6.00
2022-08-26T21:28:22.581Z,5.22
2022-08-26T21:32:26.259Z,4.03
2022-08-26T21:36:31.244Z,4.90
2022-08-26T21:40:34.478Z,4.22
2022-08-26T21:44:38.238Z,4.32
2022-08-26T21:48:45.715Z,3.53
2022-08-26T21:52:53.928Z,7.78
2022-08-26T21:56:57.603Z,5.10
2022-08-26T22:01:01.677Z,3.92
2022-08-26T22:05:05.814Z,7.85
2022-08-26T22:09:11.015Z,3.03
2022-08-26T22:13:15.295Z,3.17
2022-08-26T22:17:18.947Z,4.05
2022-08-26T22:21:25.066Z,7.53
2022-08-26T22:25:30.208Z,13.48
2022-08-26T22:29:34.053Z,3.72
2022-08-26T22:33:37.783Z,5.93
2022-08-26T22:37:41.080Z,4.30
2022-08-26T22:41:48.743Z,5.63
2022-08-26T22:45:53.553Z,4.05
2022-08-26T22:49:57.342Z,6.28
2022-08-26T22:54:00.769Z,5.25
2022-08-26T22:58:06.234Z,7.10
2022-08-26T23:02:12.017Z,7.50
2022-08-26T23:06:16.655Z,6.25
2022-08-26T23:10:20.840Z,2.63
2022-08-26T23:14:27.522Z,4.78
2022-08-26T23:18:30.787Z,4.03
2022-08-26T23:22:34.537Z,7.22
2022-08-26T23:26:38.502Z,5.95
2022-08-26T23:30:44.148Z,7.72
2022-08-26T23:35:00.486Z,5.50
2022-08-26T23:39:05.146Z,8.52
2022-08-26T23:43:11.897Z,3.35
2022-08-26T23:47:17.491Z,5.15
2022-08-26T23:51:38.757Z,5.20
2022-08-26T23:55:42.379Z,4.03
2022-08-26T23:59:45.580Z,8.50
